Time;durP1;ratioP1;P1;durP2;ratioP2;P2;SDS_P1;SDS_P2;PMS_P1;PMS_P2;Temp;Humidity;BMP_temperature;BMP_pressure;BME280_temperature;BME280_humidity;BME280_pressure;Samples;Min_cycle;Max_cycle;Signal;HPM_P1;HPM_P2
2022/09/12 00:00:11;;;;;;;3.03;2.63;;;15.70;99.90;;;;;;6218262;23;20498;-74
2022/09/12 00:02:39;;;;;;;4.63;3.13;;;15.60;99.90;;;;;;6218189;23;20415;-75
2022/09/12 00:05:06;;;;;;;3.03;2.83;;;15.50;99.90;;;;;;6218254;23;20498;-75
2022/09/12 00:07:34;;;;;;;2.80;2.60;;;15.50;99.90;;;;;;6218285;23;20466;-74
2022/09/12 00:10:01;;;;;;;4.97;2.53;;;15.40;99.90;;;;;;6218603;23;20568;-75
2022/09/12 00:12:28;;;;;;;3.40;2.50;;;15.40;99.90;;;;;;6218099;23;20486;-74
2022/09/12 00:14:54;;;;;;;3.10;2.80;;;15.40;99.90;;;;;;6218215;23;20499;-74
2022/09/12 00:17:21;;;;;;;3.00;2.60;;;15.40;99.90;;;;;;6218082;23;20522;-75
2022/09/12 00:19:49;;;;;;;3.33;2.70;;;15.30;99.90;;;;;;6218060;23;20415;-75
2022/09/12 00:22:16;;;;;;;3.23;2.93;;;15.30;99.90;;;;;;6218348;23;20522;-74
2022/09/12 00:24:43;;;;;;;3.13;2.83;;;15.30;99.90;;;;;;6217752;23;20507;-75
2022/09/12 00:27:11;;;;;;;2.70;2.50;;;15.30;99.90;;;;;;6217982;23;20499;-73
2022/09/12 00:29:37;;;;;;;2.73;2.43;;;15.20;99.90;;;;;;6218131;23;20495;-73
2022/09/12 00:32:04;;;;;;;3.23;2.50;;;15.20;99.90;;;;;;6217777;23;20499;-73
2022/09/12 00:34:31;;;;;;;3.40;3.00;;;15.20;99.90;;;;;;6218103;23;20443;-72
2022/09/12 00:36:59;;;;;;;3.30;2.97;;;15.20;99.90;;;;;;6217782;23;20522;-73
2022/09/12 00:39:26;;;;;;;3.10;2.90;;;15.20;99.90;;;;;;6217351;23;20817;-73
2022/09/12 00:41:54;;;;;;;3.30;3.00;;;15.10;99.90;;;;;;6218115;23;20510;-73
2022/09/12 00:44:47;;;;;;;3.37;2.70;;;15.10;99.90;;;;;;6217801;23;20499;-72
2022/09/12 00:47:19;;;;;;;3.43;3.13;;;15.10;99.90;;;;;;6217505;23;20407;-72
2022/09/12 00:49:49;;;;;;;3.57;3.10;;;15.10;99.90;;;;;;6219707;23;20479;-74
2022/09/12 00:52:22;;;;;;;3.27;2.97;;;15.00;99.90;;;;;;6220212;23;20422;-74
2022/09/12 00:54:55;;;;;;;6.27;5.27;;;15.00;99.90;;;;;;6219671;23;20432;-74
2022/09/12 00:57:26;;;;;;;4.20;3.80;;;15.00;99.90;;;;;;6219575;23;20423;-74
2022/09/12 00:59:57;;;;;;;4.13;3.73;;;15.00;99.90;;;;;;6220053;23;20750;-74
2022/09/12 01:02:24;;;;;;;3.80;3.50;;;15.00;99.90;;;;;;6220090;23;20510;-74
2022/09/12 01:04:52;;;;;;;3.87;3.50;;;14.90;99.90;;;;;;6220414;23;20420;-74
2022/09/12 01:07:21;;;;;;;5.97;3.33;;;14.90;99.90;;;;;;6220053;23;20413;-74
2022/09/12 01:09:48;;;;;;;4.20;3.80;;;14.90;99.90;;;;;;6219817;23;20439;-74
2022/09/12 01:12:17;;;;;;;6.30;3.30;;;14.90;99.90;;;;;;6219802;23;20498;-74
2022/09/12 01:14:44;;;;;;;5.00;4.13;;;14.90;99.90;;;;;;6220002;23;20764;-74
2022/09/12 01:17:13;;;;;;;5.00;3.77;;;14.90;99.90;;;;;;6219817;23;20518;-73
2022/09/12 01:20:18;;;;;;;5.63;4.10;;;14.90;99.90;;;;;;6219788;23;20740;-73
2022/09/12 01:23:11;;;;;;;5.00;4.40;;;14.90;99.90;;;;;;6219402;23;20494;-73
2022/09/12 01:25:50;;;;;;;5.77;4.00;;;14.80;99.90;;;;;;6219303;23;20490;-72
2022/09/12 01:28:41;;;;;;;5.43;4.80;;;14.70;99.90;;;;;;6219706;23;20482;-73
2022/09/12 01:31:14;;;;;;;4.67;4.27;;;14.70;99.90;;;;;;6219409;23;20573;-73
2022/09/12 01:34:03;;;;;;;4.30;3.83;;;14.60;99.90;;;;;;6219470;23;20400;-73
2022/09/12 01:36:39;;;;;;;6.13;4.00;;;14.60;99.90;;;;;;6219167;23;20894;-73
2022/09/12 01:39:13;;;;;;;6.30;4.47;;;14.60;99.90;;;;;;6218543;23;20529;-73
2022/09/12 01:41:50;;;;;;;3.90;3.43;;;14.60;99.90;;;;;;6219547;23;20484;-73
2022/09/12 01:44:29;;;;;;;3.93;3.53;;;14.60;99.90;;;;;;6219926;23;20482;-73
2022/09/12 01:47:07;;;;;;;4.20;3.90;;;14.50;99.90;;;;;;6220054;23;20439;-73
2022/09/12 01:49:40;;;;;;;4.10;3.70;;;14.50;99.90;;;;;;6219435;23;20469;-73
2022/09/12 01:52:14;;;;;;;3.73;3.43;;;14.40;99.90;;;;;;6219327;23;20405;-73
2022/09/12 01:54:47;;;;;;;4.50;4.10;;;14.40;99.90;;;;;;6219484;23;20408;-73
2022/09/12 01:57:18;;;;;;;3.87;3.57;;;14.40;99.90;;;;;;6219438;23;20522;-73
2022/09/12 01:59:49;;;;;;;3.87;3.57;;;14.30;99.90;;;;;;6219283;23;20415;-72
2022/09/12 02:02:22;;;;;;;3.90;3.60;;;14.30;99.90;;;;;;6218985;23;20485;-72
2022/09/12 02:04:58;;;;;;;3.93;3.63;;;14.40;99.90;;;;;;6218881;23;20434;-73
2022/09/12 02:07:30;;;;;;;3.77;3.47;;;14.30;99.90;;;;;;6219090;23;20535;-73
2022/09/12 02:10:04;;;;;;;3.87;3.57;;;14.30;99.90;;;;;;6219226;23;20427;-73
2022/09/12 02:12:38;;;;;;;3.83;3.53;;;14.30;99.90;;;;;;6219397;23;20415;-74
2022/09/12 02:15:08;;;;;;;4.30;3.87;;;14.30;99.90;;;;;;6219537;23;20822;-74
2022/09/12 02:17:40;;;;;;;3.60;3.30;;;14.30;99.90;;;;;;6219127;23;20507;-74
2022/09/12 02:20:14;;;;;;;4.60;4.20;;;14.30;99.90;;;;;;6219159;23;20759;-74
2022/09/12 02:22:45;;;;;;;6.50;3.93;;;14.30;99.90;;;;;;6219093;23;20571;-74
2022/09/12 02:25:13;;;;;;;5.60;4.00;;;14.20;99.90;;;;;;6219299;23;20400;-74
2022/09/12 02:27:46;;;;;;;4.00;3.70;;;14.20;99.90;;;;;;6218929;23;20408;-74
2022/09/12 02:30:15;;;;;;;6.40;4.57;;;14.20;99.90;;;;;;6218475;23;20675;-74
2022/09/12 02:32:52;;;;;;;4.60;4.20;;;14.20;99.90;;;;;;6219597;23;20712;-74
2022/09/12 02:35:30;;;;;;;5.00;4.60;;;14.30;99.90;;;;;;6218959;23;20410;-74
2022/09/12 02:38:02;;;;;;;4.53;4.23;;;14.30;99.90;;;;;;6218702;23;20690;-74
2022/09/12 02:40:29;;;;;;;5.60;4.43;;;14.30;99.90;;;;;;6219066;23;20397;-74
2022/09/12 02:42:56;;;;;;;4.77;4.27;;;14.20;99.90;;;;;;6218821;23;20426;-74
2022/09/12 02:45:23;;;;;;;4.67;4.27;;;14.20;99.90;;;;;;6218992;23;20454;-74
2022/09/12 02:47:57;;;;;;;4.33;3.93;;;14.10;99.90;;;;;;6218563;23;20420;-74
2022/09/12 02:50:24;;;;;;;4.63;4.23;;;14.10;99.90;;;;;;6218421;23;20435;-73
2022/09/12 02:52:52;;;;;;;5.20;4.00;;;14.10;99.90;;;;;;6218813;23;20499;-73
2022/09/12 02:55:19;;;;;;;5.33;4.60;;;14.10;99.90;;;;;;6218350;23;20423;-74
2022/09/12 02:57:46;;;;;;;4.53;4.13;;;14.10;99.90;;;;;;6218376;23;20526;-73
2022/09/12 03:00:14;;;;;;;5.97;4.03;;;14.10;99.90;;;;;;6218261;23;20427;-74
2022/09/12 03:03:02;;;;;;;5.10;4.33;;;14.10;99.90;;;;;;6218427;23;20415;-74
2022/09/12 03:05:32;;;;;;;6.20;4.47;;;14.10;99.90;;;;;;6218291;23;20487;-74
2022/09/12 03:08:21;;;;;;;4.50;4.10;;;14.00;99.90;;;;;;6218352;23;20478;-73
2022/09/12 03:11:09;;;;;;;4.90;4.10;;;13.90;99.90;;;;;;6218032;23;20432;-74
2022/09/12 03:13:46;;;;;;;5.13;4.70;;;13.90;99.90;;;;;;6218412;23;20396;-74
2022/09/12 03:16:20;;;;;;;5.20;4.70;;;13.90;99.90;;;;;;6218048;23;20479;-74
2022/09/12 03:18:58;;;;;;;4.97;4.47;;;13.90;99.90;;;;;;6218444;23;20490;-73
2022/09/12 03:21:31;;;;;;;6.87;4.67;;;13.90;99.90;;;;;;6218239;23;20773;-73
2022/09/12 03:24:06;;;;;;;6.70;5.30;;;13.80;99.90;;;;;;6218567;23;20479;-73
2022/09/12 03:26:41;;;;;;;6.30;5.30;;;13.80;99.90;;;;;;6217934;23;20442;-73
2022/09/12 03:29:10;;;;;;;5.50;4.73;;;13.80;99.90;;;;;;6218340;23;20400;-73
2022/09/12 03:31:38;;;;;;;6.90;5.50;;;13.70;99.90;;;;;;6218323;23;20415;-73
2022/09/12 03:34:11;;;;;;;7.37;5.60;;;13.70;99.90;;;;;;6218141;23;20416;-73
2022/09/12 03:36:40;;;;;;;6.60;5.13;;;13.70;99.90;;;;;;6218034;23;20424;-73
2022/09/12 03:39:06;;;;;;;6.17;5.40;;;13.70;99.90;;;;;;6217704;23;20436;-73
2022/09/12 03:41:33;;;;;;;7.40;6.10;;;13.70;99.90;;;;;;6217960;23;20426;-73
2022/09/12 03:44:00;;;;;;;8.73;5.53;;;13.70;99.90;;;;;;6218020;23;20498;-73
2022/09/12 03:46:27;;;;;;;7.13;6.00;;;13.70;99.90;;;;;;6219069;23;20503;-73
2022/09/12 03:48:54;;;;;;;6.37;5.30;;;13.70;99.90;;;;;;6218528;23;20921;-74
2022/09/12 03:51:22;;;;;;;6.30;5.27;;;13.70;99.90;;;;;;6218874;23;20510;-74
2022/09/12 03:53:49;;;;;;;7.00;5.20;;;13.60;99.90;;;;;;6218165;23;20494;-74
2022/09/12 03:56:16;;;;;;;5.77;5.17;;;13.60;99.90;;;;;;6217997;23;20416;-74
2022/09/12 03:58:43;;;;;;;7.53;5.80;;;13.70;99.90;;;;;;6219130;23;20450;-74
2022/09/12 04:01:12;;;;;;;6.60;5.80;;;13.70;99.90;;;;;;6222964;23;20503;-74
2022/09/12 04:03:39;;;;;;;7.33;5.80;;;13.70;99.90;;;;;;6219717;23;20416;-74
2022/09/12 04:06:07;;;;;;;8.30;5.83;;;13.70;99.90;;;;;;6218303;23;20482;-74
2022/09/12 04:08:35;;;;;;;10.10;5.93;;;13.60;99.90;;;;;;6218271;23;20498;-73
2022/09/12 04:11:04;;;;;;;6.37;5.60;;;13.60;99.90;;;;;;6217718;23;20503;-73
2022/09/12 04:13:30;;;;;;;8.73;6.37;;;13.60;99.90;;;;;;6217972;23;20416;-73
2022/09/12 04:15:58;;;;;;;10.13;6.83;;;13.60;99.90;;;;;;6218168;23;20458;-73
2022/09/12 04:18:25;;;;;;;10.80;6.90;;;13.50;99.90;;;;;;6217968;23;20703;-73
2022/09/12 04:20:52;;;;;;;10.40;7.77;;;13.50;99.90;;;;;;6217526;23;20470;-73
2022/09/12 04:23:19;;;;;;;13.37;7.90;;;13.50;99.90;;;;;;6217185;23;20502;-73
2022/09/12 04:25:55;;;;;;;10.30;7.40;;;13.60;99.90;;;;;;6218707;23;20416;-72
2022/09/12 04:28:22;;;;;;;13.57;8.27;;;13.60;99.90;;;;;;6218102;23;20488;-73
2022/09/12 04:30:49;;;;;;;11.90;8.67;;;13.50;99.90;;;;;;6217984;23;20503;-73
2022/09/12 04:33:15;;;;;;;10.47;8.17;;;13.50;99.90;;;;;;6217040;23;20502;-73
2022/09/12 04:35:44;;;;;;;10.93;8.00;;;13.50;99.90;;;;;;6218031;23;20494;-73
2022/09/12 04:38:11;;;;;;;8.93;6.47;;;13.50;99.90;;;;;;6216772;23;20444;-72
2022/09/12 04:40:38;;;;;;;8.10;6.50;;;13.50;99.90;;;;;;6217924;23;20411;-72
2022/09/12 04:43:07;;;;;;;7.47;5.83;;;13.50;99.90;;;;;;6217621;23;20744;-73
2022/09/12 04:45:34;;;;;;;9.13;6.70;;;13.40;99.90;;;;;;6217879;23;20747;-73
2022/09/12 04:48:02;;;;;;;9.57;7.03;;;13.40;99.90;;;;;;6217437;23;20412;-73
2022/09/12 04:50:29;;;;;;;11.43;6.60;;;13.40;99.90;;;;;;6217439;23;20434;-74
2022/09/12 04:52:55;;;;;;;9.60;7.47;;;13.40;99.90;;;;;;6217733;23;20502;-73
2022/09/12 04:55:25;;;;;;;9.27;6.80;;;13.50;99.90;;;;;;6217844;23;20507;-74
2022/09/12 04:57:52;;;;;;;8.40;6.87;;;13.50;99.90;;;;;;6217340;23;20530;-73
2022/09/12 05:00:20;;;;;;;11.90;7.17;;;13.50;99.90;;;;;;6217005;23;20885;-73
2022/09/12 05:02:47;;;;;;;6.87;6.10;;;13.50;99.90;;;;;;6216815;23;20426;-74
2022/09/12 05:05:14;;;;;;;8.33;5.90;;;13.50;99.90;;;;;;6217602;23;20470;-74
2022/09/12 05:07:40;;;;;;;7.80;6.03;;;13.50;99.90;;;;;;6217251;23;20412;-73
2022/09/12 05:10:09;;;;;;;9.20;6.70;;;13.50;99.90;;;;;;6217530;23;20924;-74
2022/09/12 05:12:36;;;;;;;6.80;5.60;;;13.40;99.90;;;;;;6219156;23;20416;-73
2022/09/12 05:15:03;;;;;;;6.10;5.50;;;13.40;99.90;;;;;;6214400;23;20709;-74
2022/09/12 05:17:31;;;;;;;8.20;5.77;;;13.40;99.90;;;;;;6214827;23;20463;-74
2022/09/12 05:19:59;;;;;;;6.50;5.77;;;13.40;99.90;;;;;;6217717;23;20758;-74
2022/09/12 05:22:26;;;;;;;8.00;6.80;;;13.40;99.90;;;;;;6217379;23;20426;-74
2022/09/12 05:24:53;;;;;;;7.43;5.47;;;13.40;99.90;;;;;;6217219;23;20498;-74
2022/09/12 05:27:20;;;;;;;7.53;6.50;;;13.50;99.90;;;;;;6217011;23;20443;-74
2022/09/12 05:29:46;;;;;;;9.33;6.77;;;13.50;99.90;;;;;;6217321;23;20483;-74
2022/09/12 05:32:13;;;;;;;9.50;7.80;;;13.50;99.90;;;;;;6218030;23;20776;-74
2022/09/12 05:34:41;;;;;;;10.10;7.80;;;13.50;99.90;;;;;;6217998;23;20499;-74
2022/09/12 05:37:08;;;;;;;11.17;7.00;;;13.50;99.90;;;;;;6219002;23;20426;-74
2022/09/12 05:39:35;;;;;;;10.03;7.17;;;13.60;99.90;;;;;;6218962;23;20519;-74
2022/09/12 05:42:02;;;;;;;11.53;6.07;;;13.60;99.90;;;;;;6219274;23;20411;-74
2022/09/12 05:44:29;;;;;;;7.47;5.83;;;13.60;99.90;;;;;;6218851;23;20411;-74
2022/09/12 05:46:56;;;;;;;7.73;6.53;;;13.60;99.90;;;;;;6219269;23;20466;-74
2022/09/12 05:49:23;;;;;;;8.23;6.40;;;13.60;99.90;;;;;;6219165;23;20495;-74
2022/09/12 05:51:51;;;;;;;8.23;6.63;;;13.70;99.90;;;;;;6218829;23;20507;-74
2022/09/12 05:54:20;;;;;;;7.43;6.30;;;13.70;99.90;;;;;;6219225;23;20494;-74
2022/09/12 05:56:47;;;;;;;9.37;6.83;;;13.80;99.90;;;;;;6219233;23;20458;-75
2022/09/12 05:59:17;;;;;;;8.83;6.80;;;13.80;99.90;;;;;;6219525;23;20439;-74
2022/09/12 06:01:44;;;;;;;8.80;7.70;;;13.80;99.90;;;;;;6219451;23;20649;-75
2022/09/12 06:04:12;;;;;;;11.17;7.53;;;13.90;99.90;;;;;;6229064;23;20534;-74
2022/09/12 06:06:42;;;;;;;8.83;7.20;;;13.90;99.90;;;;;;6219543;23;20942;-74
2022/09/12 06:09:11;;;;;;;9.33;6.27;;;14.00;99.90;;;;;;6219946;23;20443;-74
2022/09/12 06:11:40;;;;;;;9.70;7.03;;;14.00;99.90;;;;;;6223857;23;20503;-74
2022/09/12 06:14:08;;;;;;;8.63;7.80;;;14.00;99.90;;;;;;6223708;23;20426;-74
2022/09/12 06:16:36;;;;;;;7.50;6.67;;;14.10;99.90;;;;;;6220768;23;20502;-74
2022/09/12 06:19:05;;;;;;;9.13;7.33;;;14.10;99.90;;;;;;6219479;23;20439;-73
2022/09/12 06:21:33;;;;;;;8.13;7.27;;;14.20;99.90;;;;;;6218860;23;20416;-72
2022/09/12 06:24:00;;;;;;;10.43;7.20;;;14.30;99.90;;;;;;6219023;23;20416;-73
2022/09/12 06:26:28;;;;;;;15.30;6.93;;;14.30;99.90;;;;;;6218719;23;20498;-77
2022/09/12 06:28:57;;;;;;;8.23;7.43;;;14.40;99.90;;;;;;6218542;23;20426;-73
2022/09/12 06:31:25;;;;;;;7.77;6.30;;;14.50;99.90;;;;;;6218322;23;20484;-73
2022/09/12 06:33:54;;;;;;;8.03;7.07;;;14.50;99.90;;;;;;6218769;23;20498;-73
2022/09/12 06:36:23;;;;;;;7.57;6.87;;;14.60;99.90;;;;;;6218623;23;20411;-73
2022/09/12 06:38:55;;;;;;;9.73;7.03;;;14.70;99.90;;;;;;6218030;23;20534;-73
2022/09/12 06:41:23;;;;;;;11.97;6.67;;;14.80;99.90;;;;;;6218789;23;20400;-72
2022/09/12 06:43:51;;;;;;;8.17;6.53;;;14.80;99.90;;;;;;6218656;23;20485;-73
2022/09/12 06:46:18;;;;;;;10.17;7.43;;;14.90;99.90;;;;;;6218241;23;20526;-73
2022/09/12 06:48:45;;;;;;;9.93;7.30;;;15.00;99.90;;;;;;6219007;23;20503;-73
2022/09/12 06:51:14;;;;;;;10.27;6.87;;;15.10;99.90;;;;;;6218624;23;20419;-75
2022/09/12 06:53:42;;;;;;;11.10;10.00;;;15.20;99.90;;;;;;6218164;23;20459;-74
2022/09/12 06:56:11;;;;;;;7.73;7.00;;;15.20;99.90;;;;;;6218464;23;20905;-74
2022/09/12 06:58:38;;;;;;;32.33;25.57;;;15.30;99.90;;;;;;6218013;23;20439;-74
2022/09/12 07:01:09;;;;;;;16.60;12.60;;;15.40;99.90;;;;;;6218440;23;20447;-73
2022/09/12 07:03:37;;;;;;;10.33;8.40;;;15.40;99.90;;;;;;6218212;23;20426;-73
2022/09/12 07:06:05;;;;;;;9.40;7.70;;;15.50;99.90;;;;;;6217988;23;20415;-73
2022/09/12 07:08:32;;;;;;;9.20;6.87;;;15.60;99.90;;;;;;6217890;23;20915;-73
2022/09/12 07:11:00;;;;;;;8.63;7.77;;;15.60;99.90;;;;;;6217937;23;20494;-74
2022/09/12 07:13:27;;;;;;;7.37;6.67;;;15.70;99.90;;;;;;6217913;23;20677;-73
2022/09/12 07:15:54;;;;;;;9.07;7.37;;;15.70;99.90;;;;;;6217783;23;20499;-73
2022/09/12 07:18:22;;;;;;;14.50;8.03;;;15.80;99.90;;;;;;6215844;23;20474;-73
2022/09/12 07:20:49;;;;;;;7.77;6.97;;;15.80;99.90;;;;;;6217353;23;20450;-73
2022/09/12 07:23:16;;;;;;;9.37;7.70;;;15.90;99.90;;;;;;6217854;23;20483;-73
2022/09/12 07:25:43;;;;;;;11.97;8.10;;;16.00;99.90;;;;;;6218018;23;20415;-73
2022/09/12 07:28:10;;;;;;;7.47;6.70;;;16.00;99.90;;;;;;6217859;23;20499;-74
2022/09/12 07:30:38;;;;;;;12.23;8.77;;;16.10;99.90;;;;;;6217953;23;20506;-74
2022/09/12 07:33:05;;;;;;;13.50;9.13;;;16.10;99.90;;;;;;6217653;23;20886;-74
2022/09/12 07:35:34;;;;;;;9.90;9.00;;;16.20;99.90;;;;;;6217885;23;20499;-73
2022/09/12 07:38:02;;;;;;;8.60;7.80;;;16.30;99.90;;;;;;6217622;23;20435;-74
2022/09/12 07:40:29;;;;;;;8.00;7.20;;;16.40;99.90;;;;;;6217637;23;20835;-73
2022/09/12 07:42:56;;;;;;;9.00;7.27;;;16.40;99.90;;;;;;6217569;23;20446;-74
2022/09/12 07:45:22;;;;;;;8.57;7.40;;;16.50;99.90;;;;;;6217539;23;20498;-75
2022/09/12 07:47:53;;;;;;;7.47;6.77;;;16.60;99.90;;;;;;6217287;23;20423;-75
2022/09/12 07:50:19;;;;;;;8.97;7.13;;;16.60;99.90;;;;;;6217579;23;20416;-75
2022/09/12 07:52:48;;;;;;;6.90;6.20;;;16.70;99.90;;;;;;6216985;23;20462;-76
2022/09/12 07:55:15;;;;;;;13.57;12.27;;;16.80;99.90;;;;;;6217346;23;20930;-75
2022/09/12 07:57:42;;;;;;;8.97;6.57;;;16.90;99.90;;;;;;6217375;23;20768;-73
2022/09/12 08:00:10;;;;;;;8.83;5.90;;;17.00;99.90;;;;;;6217639;23;20767;-75
2022/09/12 08:02:36;;;;;;;6.50;5.90;;;17.00;99.90;;;;;;6218216;23;20416;-74
2022/09/12 08:05:04;;;;;;;7.23;5.60;;;17.10;99.90;;;;;;6217594;23;20447;-75
2022/09/12 08:07:31;;;;;;;6.13;5.53;;;17.20;99.90;;;;;;6218312;23;20415;-75
2022/09/12 08:09:59;;;;;;;6.23;5.63;;;17.30;99.90;;;;;;6217442;23;20490;-74
2022/09/12 08:12:27;;;;;;;5.10;4.60;;;17.30;99.90;;;;;;6218997;23;20427;-74
2022/09/12 08:14:53;;;;;;;7.20;5.67;;;17.40;99.90;;;;;;6219349;23;20462;-74
2022/09/12 08:17:22;;;;;;;4.40;3.90;;;17.50;99.90;;;;;;6217333;23;20503;-74
2022/09/12 08:19:49;;;;;;;5.07;4.20;;;17.60;99.90;;;;;;6218125;23;20443;-73
2022/09/12 08:22:18;;;;;;;5.60;3.90;;;17.70;99.90;;;;;;6218091;23;20498;-73
2022/09/12 08:24:45;;;;;;;4.40;3.17;;;17.80;99.90;;;;;;6217176;23;20899;-73
2022/09/12 08:27:14;;;;;;;2.33;2.13;;;17.90;99.90;;;;;;6217356;23;20440;-73
2022/09/12 08:29:41;;;;;;;3.73;3.30;;;18.00;99.90;;;;;;6217650;23;20423;-74
2022/09/12 08:32:11;;;;;;;3.30;3.00;;;18.10;99.90;;;;;;6217443;23;20416;-73
2022/09/12 08:34:37;;;;;;;4.10;3.30;;;18.10;99.90;;;;;;6218151;23;20515;-73
2022/09/12 08:37:04;;;;;;;4.10;3.20;;;18.10;99.90;;;;;;6218143;23;20416;-73
2022/09/12 08:39:32;;;;;;;7.60;4.40;;;18.10;99.90;;;;;;6217671;23;20455;-74
2022/09/12 08:42:02;;;;;;;5.93;3.03;;;18.20;99.90;;;;;;6217323;23;20871;-74
2022/09/12 08:44:52;;;;;;;4.27;2.70;;;18.30;99.90;;;;;;6218381;23;20426;-73
2022/09/12 08:47:25;;;;;;;4.97;3.40;;;18.40;99.90;;;;;;6217322;23;20400;-74
2022/09/12 08:49:59;;;;;;;7.13;3.20;;;18.40;99.90;;;;;;6217493;23;20397;-74
2022/09/12 08:52:30;;;;;;;2.43;2.23;;;18.40;99.90;;;;;;6217267;23;20400;-74
2022/09/12 08:54:57;;;;;;;2.27;1.87;;;18.40;99.90;;;;;;6217020;23;20400;-73
2022/09/12 08:57:24;;;;;;;4.33;2.23;;;18.50;99.90;;;;;;6217171;23;20506;-73
2022/09/12 08:59:53;;;;;;;2.63;2.40;;;18.50;99.90;;;;;;6216966;23;20793;-73
2022/09/12 09:03:00;;;;;;;2.20;1.97;;;18.60;99.90;;;;;;6216857;23;20426;-74
2022/09/12 09:05:41;;;;;;;6.77;2.30;;;18.80;99.90;;;;;;6067306;23;20422;-74
2022/09/12 09:08:22;;;;;;;3.20;2.50;;;18.90;99.90;;;;;;6067427;23;20507;-73
2022/09/12 09:10:53;;;;;;;2.80;2.50;;;19.00;99.90;;;;;;6069219;23;20765;-74
2022/09/12 09:16:25;;;;;;;3.97;2.30;;;19.20;99.90;;;;;;6070891;23;20427;-75
2022/09/12 09:18:53;;;;;;;2.13;1.90;;;19.30;99.90;;;;;;6071796;23;20514;-75
2022/09/12 09:21:25;;;;;;;3.60;2.80;;;19.40;99.90;;;;;;6069221;23;20483;-75
2022/09/12 09:24:00;;;;;;;1.90;1.70;;;19.50;99.90;;;;;;6068896;23;20911;-75
2022/09/12 09:26:31;;;;;;;4.13;1.60;;;19.50;99.90;;;;;;6069236;23;20486;-75
2022/09/12 09:29:02;;;;;;;1.87;1.60;;;19.40;99.90;;;;;;6069313;23;20431;-75
2022/09/12 09:31:35;;;;;;;2.30;1.47;;;19.40;99.90;;;;;;6069182;23;20404;-74
2022/09/12 09:34:06;;;;;;;1.70;1.10;;;19.50;99.90;;;;;;6069422;23;20498;-75
2022/09/12 09:36:42;;;;;;;1.67;1.20;;;19.50;99.90;;;;;;6069470;23;20522;-76
2022/09/12 09:39:20;;;;;;;3.20;1.43;;;19.60;99.90;;;;;;6069184;23;20834;-76
2022/09/12 09:41:59;;;;;;;1.77;1.40;;;19.70;99.90;;;;;;6194393;23;20957;-75
2022/09/12 09:44:29;;;;;;;1.60;1.20;;;19.80;99.90;;;;;;6218852;23;20737;-75
2022/09/12 09:47:00;;;;;;;1.40;1.17;;;19.90;99.90;;;;;;6219213;23;20416;-76
2022/09/12 09:49:31;;;;;;;2.57;2.30;;;19.90;99.90;;;;;;6218895;23;20461;-75
2022/09/12 09:51:59;;;;;;;1.50;1.20;;;20.00;99.90;;;;;;6219163;23;20757;-75
2022/09/12 09:54:33;;;;;;;1.70;1.30;;;19.90;99.90;;;;;;6219086;23;20416;-75
2022/09/12 09:57:00;;;;;;;1.43;1.17;;;19.80;99.90;;;;;;6218743;23;20410;-75
2022/09/12 09:59:28;;;;;;;1.90;1.43;;;19.70;99.90;;;;;;6218501;23;20918;-75
2022/09/12 10:02:02;;;;;;;2.43;1.20;;;19.70;99.90;;;;;;6219065;23;20416;-74
2022/09/12 10:04:31;;;;;;;1.50;1.20;;;19.70;99.90;;;;;;6221250;23;20399;-75
2022/09/12 10:06:59;;;;;;;2.17;1.87;;;19.80;99.90;;;;;;6220169;23;20575;-75
2022/09/12 10:09:28;;;;;;;1.30;1.10;;;19.90;99.90;;;;;;6219087;23;20439;-76
2022/09/12 10:11:56;;;;;;;1.97;1.30;;;20.10;99.90;;;;;;6218759;23;20458;-75
2022/09/12 10:14:37;;;;;;;1.73;1.40;;;20.20;99.90;;;;;;6218558;23;20514;-75
2022/09/12 10:17:24;;;;;;;1.10;0.80;;;20.30;99.90;;;;;;6228448;23;20397;-75
2022/09/12 10:19:52;;;;;;;3.17;1.20;;;20.40;99.90;;;;;;6218526;23;20534;-75
2022/09/12 10:22:21;;;;;;;1.30;1.00;;;20.50;99.90;;;;;;6218154;23;20458;-76
2022/09/12 10:24:51;;;;;;;3.23;1.13;;;20.50;99.90;;;;;;6218437;23;20430;-75
2022/09/12 10:27:21;;;;;;;2.17;1.17;;;20.60;99.90;;;;;;6218600;23;20416;-75
2022/09/12 10:29:51;;;;;;;1.70;1.60;;;20.60;99.90;;;;;;6218871;23;20753;-75
2022/09/12 10:32:35;;;;;;;1.60;1.20;;;20.70;99.90;;;;;;6219339;23;20450;-76
2022/09/12 10:35:04;;;;;;;2.47;1.20;;;20.70;99.90;;;;;;6221187;23;20400;-76
2022/09/12 10:37:34;;;;;;;1.93;1.00;;;20.70;99.90;;;;;;6218463;23;20748;-75
2022/09/12 10:40:02;;;;;;;2.60;1.37;;;20.70;99.90;;;;;;6218187;23;20534;-75
2022/09/12 10:42:47;;;;;;;1.50;1.40;;;20.70;99.90;;;;;;6219414;23;20486;-75
2022/09/12 10:45:27;;;;;;;1.80;1.00;;;20.70;99.90;;;;;;6218644;23;20404;-75
2022/09/12 10:47:58;;;;;;;4.33;1.30;;;20.70;99.90;;;;;;6218275;23;20410;-76
2022/09/12 10:50:30;;;;;;;1.77;1.20;;;20.60;99.90;;;;;;6218555;23;20407;-76
2022/09/12 10:53:16;;;;;;;1.43;0.93;;;20.50;99.90;;;;;;6219015;23;20401;-76
2022/09/12 10:55:59;;;;;;;2.33;1.23;;;20.60;99.90;;;;;;6217946;23;20483;-76
2022/09/12 10:58:38;;;;;;;1.53;1.00;;;20.60;99.90;;;;;;6217826;23;20400;-75
2022/09/12 11:01:16;;;;;;;1.70;1.13;;;20.60;99.90;;;;;;6218417;23;20420;-76
2022/09/12 11:04:02;;;;;;;1.87;1.43;;;20.70;99.90;;;;;;6218001;23;20439;-75
2022/09/12 11:06:38;;;;;;;1.50;1.20;;;20.80;99.90;;;;;;6217985;23;20483;-76
2022/09/12 11:09:14;;;;;;;1.30;1.10;;;21.00;99.90;;;;;;6218404;23;20396;-75
2022/09/12 11:11:57;;;;;;;1.50;1.30;;;21.30;99.90;;;;;;6218299;23;20747;-75
2022/09/12 11:14:40;;;;;;;1.93;1.40;;;21.70;99.90;;;;;;6218145;23;20400;-75
2022/09/12 11:17:20;;;;;;;1.63;1.47;;;21.80;99.90;;;;;;6217677;23;20870;-76
2022/09/12 11:20:06;;;;;;;2.30;1.70;;;21.90;99.90;;;;;;6217784;23;20466;-74
2022/09/12 11:22:46;;;;;;;2.67;1.40;;;22.00;99.90;;;;;;6218176;23;20399;-76
2022/09/12 11:25:23;;;;;;;3.20;1.20;;;22.20;99.90;;;;;;6218157;23;20482;-75
2022/09/12 11:28:15;;;;;;;4.83;1.40;;;22.60;99.90;;;;;;6218379;23;20400;-75
2022/09/12 11:30:51;;;;;;;1.70;1.20;;;23.10;99.90;;;;;;6222762;23;20791;-74
2022/09/12 11:33:37;;;;;;;2.87;1.20;;;23.70;99.90;;;;;;6222864;23;20507;-75
2022/09/12 11:36:10;;;;;;;3.00;1.17;;;24.10;99.90;;;;;;6217351;23;20411;-76
2022/09/12 11:39:01;;;;;;;2.80;1.53;;;24.40;99.90;;;;;;6217151;23;20450;-75
2022/09/12 11:41:32;;;;;;;1.57;1.17;;;24.40;99.90;;;;;;6217789;23;20506;-75
2022/09/12 11:44:07;;;;;;;1.20;0.90;;;24.40;99.90;;;;;;6217499;23;20400;-75
2022/09/12 11:46:37;;;;;;;1.87;1.33;;;24.50;99.90;;;;;;6217988;23;20650;-75
2022/09/12 11:49:14;;;;;;;1.33;1.00;;;24.70;99.90;;;;;;6217910;23;20416;-75
2022/09/12 11:51:48;;;;;;;1.80;1.20;;;25.20;99.90;;;;;;6217972;23;20431;-75
2022/09/12 11:54:22;;;;;;;1.27;1.00;;;26.00;99.90;;;;;;6217803;23;20479;-75
2022/09/12 11:56:53;;;;;;;1.80;1.10;;;26.80;99.90;;;;;;6217743;23;20427;-75
2022/09/12 11:59:30;;;;;;;1.40;1.00;;;27.30;98.70;;;;;;6217071;23;20432;-75
2022/09/12 12:01:59;;;;;;;2.63;1.03;;;27.40;95.50;;;;;;6217627;23;20491;-75
2022/09/12 12:04:34;;;;;;;1.20;1.00;;;27.20;93.70;;;;;;6217328;23;20415;-77
2022/09/12 12:07:06;;;;;;;1.40;1.20;;;27.10;93.50;;;;;;6217676;23;20505;-75
2022/09/12 12:09:34;;;;;;;1.27;0.80;;;27.40;92.10;;;;;;6217265;23;20396;-75
2022/09/12 12:12:05;;;;;;;1.80;0.93;;;27.70;87.00;;;;;;6217736;23;20511;-76
2022/09/12 12:14:40;;;;;;;1.10;0.90;;;28.30;85.60;;;;;;6217703;23;20447;-76
2022/09/12 12:17:14;;;;;;;1.53;1.10;;;29.10;80.20;;;;;;6217603;23;20482;-75
2022/09/12 12:19:41;;;;;;;1.97;1.00;;;29.40;76.00;;;;;;6216773;23;20431;-74
2022/09/12 12:22:17;;;;;;;1.73;1.20;;;29.60;73.70;;;;;;6227577;23;20450;-75
2022/09/12 12:24:58;;;;;;;1.60;1.00;;;29.70;70.80;;;;;;6220718;23;20473;-75
2022/09/12 12:27:46;;;;;;;2.30;1.10;;;29.70;70.80;;;;;;6220251;23;20428;-75
2022/09/12 12:30:51;;;;;;;1.60;0.83;;;30.00;66.40;;;;;;6218540;23;20914;-75
2022/09/12 12:33:53;;;;;;;1.70;1.20;;;30.50;63.60;;;;;;6126142;23;20470;-75
2022/09/12 12:36:33;;;;;;;3.87;1.20;;;30.80;60.00;;;;;;6038595;23;20505;-75
2022/09/12 12:39:49;;;;;;;1.70;1.07;;;30.90;58.20;;;;;;6055726;23;20551;-75
2022/09/12 12:42:59;;;;;;;1.20;1.00;;;30.30;57.30;;;;;;6071003;23;20413;-75
2022/09/12 12:45:48;;;;;;;3.00;1.40;;;29.00;58.30;;;;;;5954571;24;20514;-76
2022/09/12 12:48:19;;;;;;;3.10;1.33;;;27.50;60.10;;;;;;5954729;24;20543;-75
2022/09/12 12:50:47;;;;;;;1.33;1.20;;;26.70;65.80;;;;;;5955031;24;20567;-76
2022/09/12 12:53:23;;;;;;;1.43;1.20;;;26.50;68.30;;;;;;5982661;24;20823;-75
2022/09/12 12:55:54;;;;;;;1.77;1.20;;;26.80;68.10;;;;;;5982596;24;20407;-75
2022/09/12 12:58:33;;;;;;;2.23;1.10;;;27.20;68.80;;;;;;5982622;24;20733;-73
2022/09/12 13:01:11;;;;;;;1.77;1.30;;;27.50;64.50;;;;;;5982405;24;20431;-74
2022/09/12 13:03:43;;;;;;;2.00;1.20;;;27.30;65.30;;;;;;5982481;24;20682;-75
2022/09/12 13:06:26;;;;;;;1.40;1.00;;;27.40;66.30;;;;;;5982683;24;20438;-75
2022/09/12 13:08:59;;;;;;;1.67;1.10;;;27.50;67.20;;;;;;5985280;23;20420;-75
2022/09/12 13:11:33;;;;;;;1.33;1.10;;;27.50;64.50;;;;;;6063404;23;20416;-75